sensor_id;sensor_type;location;lat;lon;timestamp;temperature;humidity
8563;DHT22;16392;52.508;13.468;2023-03-19T00:00:25;10.00;99.90
8563;DHT22;16392;52.508;13.468;2023-03-19T00:02:52;9.90;99.90
8563;DHT22;16392;52.508;13.468;2023-03-19T00:05:19;10.00;52.80
8563;DHT22;16392;52.508;13.468;2023-03-19T00:07:45;9.90;35.40
8563;DHT22;16392;52.508;13.468;2023-03-19T00:10:12;9.90;99.90
8563;DHT22;16392;52.508;13.468;2023-03-19T00:12:38;9.80;99.90
8563;DHT22;16392;52.508;13.468;2023-03-19T00:15:05;9.80;99.90
8563;DHT22;16392;52.508;13.468;2023-03-19T00:17:34;9.80;99.90
8563;DHT22;16392;52.508;13.468;2023-03-19T00:20:01;9.70;99.90
8563;DHT22;16392;52.508;13.468;2023-03-19T00:22:29;9.70;1.00
8563;DHT22;16392;52.508;13.468;2023-03-19T00:24:55;9.60;99.90
8563;DHT22;16392;52.508;13.468;2023-03-19T00:27:22;9.50;99.90
8563;DHT22;16392;52.508;13.468;2023-03-19T00:29:48;9.50;99.90
8563;DHT22;16392;52.508;13.468;2023-03-19T00:32:15;9.50;1.00
8563;DHT22;16392;52.508;13.468;2023-03-19T00:34:43;9.50;1.00
8563;DHT22;16392;52.508;13.468;2023-03-19T00:37:10;9.40;1.00
8563;DHT22;16392;52.508;13.468;2023-03-19T00:39:37;9.40;99.90
8563;DHT22;16392;52.508;13.468;2023-03-19T00:42:04;9.30;99.90
8563;DHT22;16392;52.508;13.468;2023-03-19T00:44:31;9.30;99.90
8563;DHT22;16392;52.508;13.468;2023-03-19T00:46:58;9.20;99.90
8563;DHT22;16392;52.508;13.468;2023-03-19T00:49:24;9.20;99.90
8563;DHT22;16392;52.508;13.468;2023-03-19T00:51:52;9.20;99.90
8563;DHT22;16392;52.508;13.468;2023-03-19T00:54:19;9.20;1.00
8563;DHT22;16392;52.508;13.468;2023-03-19T00:56:46;9.20;1.00
8563;DHT22;16392;52.508;13.468;2023-03-19T00:59:12;9.10;1.00
8563;DHT22;16392;52.508;13.468;2023-03-19T01:01:39;9.10;1.00
8563;DHT22;16392;52.508;13.468;2023-03-19T01:04:06;9.10;17.10
8563;DHT22;16392;52.508;13.468;2023-03-19T01:06:32;9.00;1.00
8563;DHT22;16392;52.508;13.468;2023-03-19T01:09:00;9.00;99.90
8563;DHT22;16392;52.508;13.468;2023-03-19T01:11:26;8.90;99.90
8563;DHT22;16392;52.508;13.468;2023-03-19T01:13:53;8.90;99.90
8563;DHT22;16392;52.508;13.468;2023-03-19T01:16:19;8.90;1.00
8563;DHT22;16392;52.508;13.468;2023-03-19T01:18:46;8.90;1.00
8563;DHT22;16392;52.508;13.468;2023-03-19T01:21:12;8.80;99.90
8563;DHT22;16392;52.508;13.468;2023-03-19T01:23:39;8.80;99.90
8563;DHT22;16392;52.508;13.468;2023-03-19T01:26:07;8.80;99.90
8563;DHT22;16392;52.508;13.468;2023-03-19T01:28:34;8.80;99.90
8563;DHT22;16392;52.508;13.468;2023-03-19T01:31:01;8.80;99.90
8563;DHT22;16392;52.508;13.468;2023-03-19T01:33:27;8.70;1.00
8563;DHT22;16392;52.508;13.468;2023-03-19T01:35:54;8.60;1.00
8563;DHT22;16392;52.508;13.468;2023-03-19T01:38:22;8.60;1.00
8563;DHT22;16392;52.508;13.468;2023-03-19T01:40:49;8.60;1.00
8563;DHT22;16392;52.508;13.468;2023-03-19T01:43:18;8.60;1.00
8563;DHT22;16392;52.508;13.468;2023-03-19T01:45:46;8.60;1.00
8563;DHT22;16392;52.508;13.468;2023-03-19T01:48:16;8.60;99.90
8563;DHT22;16392;52.508;13.468;2023-03-19T01:50:44;8.60;99.90
8563;DHT22;16392;52.508;13.468;2023-03-19T01:53:11;8.60;99.90
8563;DHT22;16392;52.508;13.468;2023-03-19T01:55:38;8.50;99.90
8563;DHT22;16392;52.508;13.468;2023-03-19T01:58:06;8.50;99.90
8563;DHT22;16392;52.508;13.468;2023-03-19T02:00:34;8.50;99.90
8563;DHT22;16392;52.508;13.468;2023-03-19T02:03:02;8.50;1.00
8563;DHT22;16392;52.508;13.468;2023-03-19T02:05:29;8.50;1.00
8563;DHT22;16392;52.508;13.468;2023-03-19T02:07:57;8.40;92.90
8563;DHT22;16392;52.508;13.468;2023-03-19T02:10:24;8.50;1.00
8563;DHT22;16392;52.508;13.468;2023-03-19T02:12:52;8.40;1.00
8563;DHT22;16392;52.508;13.468;2023-03-19T02:15:18;8.30;99.90
8563;DHT22;16392;52.508;13.468;2023-03-19T02:17:46;8.30;99.90
8563;DHT22;16392;52.508;13.468;2023-03-19T02:20:15;8.30;99.90
8563;DHT22;16392;52.508;13.468;2023-03-19T02:22:45;8.20;99.90
8563;DHT22;16392;52.508;13.468;2023-03-19T02:25:15;8.30;99.90
8563;DHT22;16392;52.508;13.468;2023-03-19T02:27:46;8.30;1.00
8563;DHT22;16392;52.508;13.468;2023-03-19T02:30:16;8.40;1.00
8563;DHT22;16392;52.508;13.468;2023-03-19T02:32:43;8.40;1.00
8563;DHT22;16392;52.508;13.468;2023-03-19T02:35:09;8.40;1.00
8563;DHT22;16392;52.508;13.468;2023-03-19T02:37:36;8.40;1.00
8563;DHT22;16392;52.508;13.468;2023-03-19T02:40:04;8.40;1.00
8563;DHT22;16392;52.508;13.468;2023-03-19T02:42:32;8.40;1.00
8563;DHT22;16392;52.508;13.468;2023-03-19T02:45:01;8.30;1.00
8563;DHT22;16392;52.508;13.468;2023-03-19T02:47:27;8.30;27.20
8563;DHT22;16392;52.508;13.468;2023-03-19T02:49:54;8.40;1.00
8563;DHT22;16392;52.508;13.468;2023-03-19T02:52:20;8.40;1.00
8563;DHT22;16392;52.508;13.468;2023-03-19T02:54:47;8.40;1.00
8563;DHT22;16392;52.508;13.468;2023-03-19T02:57:13;8.40;1.00
8563;DHT22;16392;52.508;13.468;2023-03-19T02:59:40;8.40;1.00
8563;DHT22;16392;52.508;13.468;2023-03-19T03:02:08;8.40;1.00
8563;DHT22;16392;52.508;13.468;2023-03-19T03:04:35;8.40;99.90
8563;DHT22;16392;52.508;13.468;2023-03-19T03:07:02;8.40;99.90
8563;DHT22;16392;52.508;13.468;2023-03-19T03:09:29;8.40;1.00
8563;DHT22;16392;52.508;13.468;2023-03-19T03:11:56;8.40;99.90
8563;DHT22;16392;52.508;13.468;2023-03-19T03:14:22;8.40;99.90
8563;DHT22;16392;52.508;13.468;2023-03-19T03:16:49;8.40;1.00
8563;DHT22;16392;52.508;13.468;2023-03-19T03:19:17;8.40;1.00
8563;DHT22;16392;52.508;13.468;2023-03-19T03:21:43;8.40;1.00
8563;DHT22;16392;52.508;13.468;2023-03-19T03:24:10;8.40;1.00
8563;DHT22;16392;52.508;13.468;2023-03-19T03:26:36;8.40;1.00
8563;DHT22;16392;52.508;13.468;2023-03-19T03:29:04;8.40;1.00
8563;DHT22;16392;52.508;13.468;2023-03-19T03:31:30;8.30;1.00
8563;DHT22;16392;52.508;13.468;2023-03-19T03:33:57;8.30;1.00
8563;DHT22;16392;52.508;13.468;2023-03-19T03:36:25;8.30;99.90
8563;DHT22;16392;52.508;13.468;2023-03-19T03:38:52;8.30;99.90
8563;DHT22;16392;52.508;13.468;2023-03-19T03:41:18;8.30;1.00
8563;DHT22;16392;52.508;13.468;2023-03-19T03:43:45;8.30;1.00
8563;DHT22;16392;52.508;13.468;2023-03-19T03:46:12;8.30;99.90
8563;DHT22;16392;52.508;13.468;2023-03-19T03:48:38;8.30;1.00
8563;DHT22;16392;52.508;13.468;2023-03-19T03:51:05;8.30;1.00
8563;DHT22;16392;52.508;13.468;2023-03-19T03:53:33;8.20;1.00
8563;DHT22;16392;52.508;13.468;2023-03-19T03:55:59;8.20;99.90
8563;DHT22;16392;52.508;13.468;2023-03-19T03:58:26;8.10;99.90
8563;DHT22;16392;52.508;13.468;2023-03-19T04:00:53;8.10;99.90
8563;DHT22;16392;52.508;13.468;2023-03-19T04:03:20;8.10;1.00
8563;DHT22;16392;52.508;13.468;2023-03-19T04:05:48;8.10;1.00
8563;DHT22;16392;52.508;13.468;2023-03-19T04:08:15;8.10;1.00
8563;DHT22;16392;52.508;13.468;2023-03-19T04:10:42;8.10;1.00
8563;DHT22;16392;52.508;13.468;2023-03-19T04:13:09;8.10;1.00
8563;DHT22;16392;52.508;13.468;2023-03-19T04:15:36;8.00;1.00
8563;DHT22;16392;52.508;13.468;2023-03-19T04:18:03;8.00;1.00
8563;DHT22;16392;52.508;13.468;2023-03-19T04:20:29;8.00;1.00
8563;DHT22;16392;52.508;13.468;2023-03-19T04:22:56;8.00;99.90
8563;DHT22;16392;52.508;13.468;2023-03-19T04:25:22;8.00;1.00
8563;DHT22;16392;52.508;13.468;2023-03-19T04:27:50;8.10;9.40
8563;DHT22;16392;52.508;13.468;2023-03-19T04:30:17;8.10;24.30
8563;DHT22;16392;52.508;13.468;2023-03-19T04:32:44;8.00;1.00
8563;DHT22;16392;52.508;13.468;2023-03-19T04:35:10;8.10;39.30
8563;DHT22;16392;52.508;13.468;2023-03-19T04:37:37;8.10;1.00
8563;DHT22;16392;52.508;13.468;2023-03-19T04:40:04;8.10;1.00
8563;DHT22;16392;52.508;13.468;2023-03-19T04:42:31;8.10;1.00
8563;DHT22;16392;52.508;13.468;2023-03-19T04:44:58;8.10;1.00
8563;DHT22;16392;52.508;13.468;2023-03-19T04:47:25;8.10;1.00
8563;DHT22;16392;52.508;13.468;2023-03-19T04:49:52;8.10;1.00
8563;DHT22;16392;52.508;13.468;2023-03-19T04:52:18;8.20;1.00
8563;DHT22;16392;52.508;13.468;2023-03-19T04:54:45;8.20;1.00
8563;DHT22;16392;52.508;13.468;2023-03-19T04:57:11;8.20;1.00
8563;DHT22;16392;52.508;13.468;2023-03-19T04:59:38;8.20;1.00
8563;DHT22;16392;52.508;13.468;2023-03-19T05:02:06;8.20;99.90
8563;DHT22;16392;52.508;13.468;2023-03-19T05:04:33;8.10;1.00
8563;DHT22;16392;52.508;13.468;2023-03-19T05:06:59;8.10;1.00
8563;DHT22;16392;52.508;13.468;2023-03-19T05:09:26;8.20;1.00
8563;DHT22;16392;52.508;13.468;2023-03-19T05:11:55;8.20;1.00
8563;DHT22;16392;52.508;13.468;2023-03-19T05:14:21;8.20;1.00
8563;DHT22;16392;52.508;13.468;2023-03-19T05:16:48;8.10;1.00
8563;DHT22;16392;52.508;13.468;2023-03-19T05:19:16;8.10;1.00
8563;DHT22;16392;52.508;13.468;2023-03-19T05:21:42;8.00;43.40
8563;DHT22;16392;52.508;13.468;2023-03-19T05:24:09;7.90;99.90
8563;DHT22;16392;52.508;13.468;2023-03-19T05:26:35;7.90;99.90
8563;DHT22;16392;52.508;13.468;2023-03-19T05:29:02;7.70;99.90
8563;DHT22;16392;52.508;13.468;2023-03-19T05:31:29;7.60;99.90
8563;DHT22;16392;52.508;13.468;2023-03-19T05:33:55;7.50;99.90
8563;DHT22;16392;52.508;13.468;2023-03-19T05:36:24;7.60;99.90
8563;DHT22;16392;52.508;13.468;2023-03-19T05:38:50;7.60;99.90
8563;DHT22;16392;52.508;13.468;2023-03-19T05:41:17;7.60;99.90
8563;DHT22;16392;52.508;13.468;2023-03-19T05:43:43;7.60;99.90
8563;DHT22;16392;52.508;13.468;2023-03-19T05:46:10;7.60;99.90
8563;DHT22;16392;52.508;13.468;2023-03-19T05:48:36;7.70;99.90
8563;DHT22;16392;52.508;13.468;2023-03-19T05:51:03;7.70;99.90
8563;DHT22;16392;52.508;13.468;2023-03-19T05:53:40;7.90;99.90
8563;DHT22;16392;52.508;13.468;2023-03-19T05:56:07;8.00;99.90
8563;DHT22;16392;52.508;13.468;2023-03-19T05:58:34;8.20;99.90
8563;DHT22;16392;52.508;13.468;2023-03-19T06:01:00;8.20;99.90
8563;DHT22;16392;52.508;13.468;2023-03-19T06:03:27;8.20;99.90
8563;DHT22;16392;52.508;13.468;2023-03-19T06:05:53;8.20;99.90
8563;DHT22;16392;52.508;13.468;2023-03-19T06:08:20;8.20;99.90
8563;DHT22;16392;52.508;13.468;2023-03-19T06:10:49;8.30;99.90
8563;DHT22;16392;52.508;13.468;2023-03-19T06:13:16;8.50;99.90
8563;DHT22;16392;52.508;13.468;2023-03-19T06:15:42;8.90;99.90
8563;DHT22;16392;52.508;13.468;2023-03-19T06:18:09;9.30;99.90
8563;DHT22;16392;52.508;13.468;2023-03-19T06:20:36;9.50;99.90
8563;DHT22;16392;52.508;13.468;2023-03-19T06:23:02;9.60;99.90
8563;DHT22;16392;52.508;13.468;2023-03-19T06:25:29;9.80;99.90
8563;DHT22;16392;52.508;13.468;2023-03-19T06:27:57;10.20;99.90
8563;DHT22;16392;52.508;13.468;2023-03-19T06:30:23;10.70;99.90
8563;DHT22;16392;52.508;13.468;2023-03-19T06:32:50;10.90;99.90
8563;DHT22;16392;52.508;13.468;2023-03-19T06:35:16;11.20;99.90
8563;DHT22;16392;52.508;13.468;2023-03-19T06:37:43;11.50;99.90
8563;DHT22;16392;52.508;13.468;2023-03-19T06:40:10;11.90;99.90
8563;DHT22;16392;52.508;13.468;2023-03-19T06:42:37;11.10;99.90
8563;DHT22;16392;52.508;13.468;2023-03-19T06:45:05;10.20;99.90
8563;DHT22;16392;52.508;13.468;2023-03-19T06:47:32;9.70;99.90
8563;DHT22;16392;52.508;13.468;2023-03-19T06:49:59;9.50;99.90
8563;DHT22;16392;52.508;13.468;2023-03-19T06:52:26;9.30;99.90
8563;DHT22;16392;52.508;13.468;2023-03-19T06:54:52;9.40;99.90
8563;DHT22;16392;52.508;13.468;2023-03-19T06:57:19;9.50;99.90
8563;DHT22;16392;52.508;13.468;2023-03-19T06:59:45;9.60;99.90
8563;DHT22;16392;52.508;13.468;2023-03-19T07:02:13;9.40;99.90
8563;DHT22;16392;52.508;13.468;2023-03-19T07:04:39;9.20;99.90
8563;DHT22;16392;52.508;13.468;2023-03-19T07:07:06;9.30;99.90
8563;DHT22;16392;52.508;13.468;2023-03-19T07:09:32;9.30;99.90
8563;DHT22;16392;52.508;13.468;2023-03-19T07:11:59;9.30;99.90
8563;DHT22;16392;52.508;13.468;2023-03-19T07:14:25;9.30;99.90
8563;DHT22;16392;52.508;13.468;2023-03-19T07:16:52;9.30;99.90
8563;DHT22;16392;52.508;13.468;2023-03-19T07:19:20;9.20;99.90
8563;DHT22;16392;52.508;13.468;2023-03-19T07:21:47;9.10;99.90
8563;DHT22;16392;52.508;13.468;2023-03-19T07:24:13;9.10;99.90
8563;DHT22;16392;52.508;13.468;2023-03-19T07:26:40;9.10;99.90
8563;DHT22;16392;52.508;13.468;2023-03-19T07:29:08;9.10;99.90
8563;DHT22;16392;52.508;13.468;2023-03-19T07:31:35;9.10;99.90
8563;DHT22;16392;52.508;13.468;2023-03-19T07:34:02;9.20;99.90
8563;DHT22;16392;52.508;13.468;2023-03-19T07:36:30;9.20;99.90
8563;DHT22;16392;52.508;13.468;2023-03-19T07:38:56;9.20;99.90
8563;DHT22;16392;52.508;13.468;2023-03-19T07:41:23;9.30;99.90
8563;DHT22;16392;52.508;13.468;2023-03-19T07:43:50;9.40;99.90
8563;DHT22;16392;52.508;13.468;2023-03-19T07:46:16;9.70;99.90
8563;DHT22;16392;52.508;13.468;2023-03-19T07:48:43;9.90;99.90
8563;DHT22;16392;52.508;13.468;2023-03-19T07:51:09;10.10;99.90
8563;DHT22;16392;52.508;13.468;2023-03-19T07:53:37;10.40;99.90
8563;DHT22;16392;52.508;13.468;2023-03-19T07:56:04;10.90;99.90
8563;DHT22;16392;52.508;13.468;2023-03-19T07:58:31;11.20;99.90
8563;DHT22;16392;52.508;13.468;2023-03-19T08:00:57;11.40;99.90
8563;DHT22;16392;52.508;13.468;2023-03-19T08:03:24;12.10;99.90
8563;DHT22;16392;52.508;13.468;2023-03-19T08:05:50;12.60;99.90
8563;DHT22;16392;52.508;13.468;2023-03-19T08:08:18;13.10;99.90
8563;DHT22;16392;52.508;13.468;2023-03-19T08:10:46;13.70;53.70
8563;DHT22;16392;52.508;13.468;2023-03-19T08:13:15;14.20;1.00
8563;DHT22;16392;52.508;13.468;2023-03-19T08:15:41;14.30;1.00
8563;DHT22;16392;52.508;13.468;2023-03-19T08:18:08;14.60;99.90
8563;DHT22;16392;52.508;13.468;2023-03-19T08:20:34;14.70;99.90
8563;DHT22;16392;52.508;13.468;2023-03-19T08:23:01;14.50;1.00
8563;DHT22;16392;52.508;13.468;2023-03-19T08:25:28;14.30;99.90
8563;DHT22;16392;52.508;13.468;2023-03-19T08:27:58;13.80;99.90
8563;DHT22;16392;52.508;13.468;2023-03-19T08:30:24;13.40;1.00
8563;DHT22;16392;52.508;13.468;2023-03-19T08:32:51;13.10;1.00
8563;DHT22;16392;52.508;13.468;2023-03-19T08:35:18;12.40;1.00
8563;DHT22;16392;52.508;13.468;2023-03-19T08:37:45;12.00;99.90
8563;DHT22;16392;52.508;13.468;2023-03-19T08:40:12;11.70;99.90
8563;DHT22;16392;52.508;13.468;2023-03-19T08:42:39;11.50;99.90
8563;DHT22;16392;52.508;13.468;2023-03-19T08:45:09;11.50;99.90
8563;DHT22;16392;52.508;13.468;2023-03-19T08:47:35;11.40;99.90
8563;DHT22;16392;52.508;13.468;2023-03-19T08:50:02;11.30;99.90
8563;DHT22;16392;52.508;13.468;2023-03-19T08:52:29;11.10;99.90
8563;DHT22;16392;52.508;13.468;2023-03-19T08:54:56;10.90;99.90
8563;DHT22;16392;52.508;13.468;2023-03-19T08:57:22;10.70;99.90
8563;DHT22;16392;52.508;13.468;2023-03-19T08:59:50;10.50;99.90
8563;DHT22;16392;52.508;13.468;2023-03-19T09:02:18;10.30;99.90
8563;DHT22;16392;52.508;13.468;2023-03-19T09:04:45;10.20;99.90
8563;DHT22;16392;52.508;13.468;2023-03-19T09:07:12;10.00;99.90
8563;DHT22;16392;52.508;13.468;2023-03-19T09:09:40;9.90;99.90
8563;DHT22;16392;52.508;13.468;2023-03-19T09:12:07;9.80;99.90
8563;DHT22;16392;52.508;13.468;2023-03-19T09:14:35;9.70;99.90
8563;DHT22;16392;52.508;13.468;2023-03-19T09:17:02;9.60;99.90
8563;DHT22;16392;52.508;13.468;2023-03-19T09:19:30;9.50;99.90
8563;DHT22;16392;52.508;13.468;2023-03-19T09:21:57;9.40;99.90
8563;DHT22;16392;52.508;13.468;2023-03-19T09:24:24;9.40;99.90
8563;DHT22;16392;52.508;13.468;2023-03-19T09:26:50;9.40;99.90
8563;DHT22;16392;52.508;13.468;2023-03-19T09:29:17;9.40;99.90
8563;DHT22;16392;52.508;13.468;2023-03-19T09:31:43;9.40;99.90
8563;DHT22;16392;52.508;13.468;2023-03-19T09:34:11;9.50;99.90
8563;DHT22;16392;52.508;13.468;2023-03-19T09:36:39;9.50;99.90
8563;DHT22;16392;52.508;13.468;2023-03-19T09:39:06;9.50;99.90
8563;DHT22;16392;52.508;13.468;2023-03-19T09:41:34;9.60;99.90
8563;DHT22;16392;52.508;13.468;2023-03-19T09:44:04;9.60;99.90
8563;DHT22;16392;52.508;13.468;2023-03-19T09:46:36;9.70;99.90
8563;DHT22;16392;52.508;13.468;2023-03-19T09:49:04;9.80;99.90
8563;DHT22;16392;52.508;13.468;2023-03-19T09:51:33;10.00;99.90
8563;DHT22;16392;52.508;13.468;2023-03-19T09:54:03;10.10;99.90
8563;DHT22;16392;52.508;13.468;2023-03-19T09:56:31;10.10;99.90
8563;DHT22;16392;52.508;13.468;2023-03-19T09:58:59;10.10;99.90
8563;DHT22;16392;52.508;13.468;2023-03-19T10:01:26;10.20;99.90
8563;DHT22;16392;52.508;13.468;2023-03-19T10:04:00;10.30;99.90
8563;DHT22;16392;52.508;13.468;2023-03-19T10:06:30;10.30;99.90
8563;DHT22;16392;52.508;13.468;2023-03-19T10:11:50;10.50;99.90
8563;DHT22;16392;52.508;13.468;2023-03-19T10:14:28;10.70;99.90
8563;DHT22;16392;52.508;13.468;2023-03-19T10:16:58;10.80;99.90
8563;DHT22;16392;52.508;13.468;2023-03-19T10:19:29;11.00;99.90
8563;DHT22;16392;52.508;13.468;2023-03-19T10:22:03;11.30;99.90
8563;DHT22;16392;52.508;13.468;2023-03-19T10:24:32;11.30;99.90
8563;DHT22;16392;52.508;13.468;2023-03-19T10:27:07;11.30;99.90
8563;DHT22;16392;52.508;13.468;2023-03-19T10:29:35;11.30;99.90
8563;DHT22;16392;52.508;13.468;2023-03-19T10:32:04;11.40;99.90
8563;DHT22;16392;52.508;13.468;2023-03-19T10:34:35;11.50;99.90
8563;DHT22;16392;52.508;13.468;2023-03-19T10:37:02;11.60;99.90
8563;DHT22;16392;52.508;13.468;2023-03-19T10:39:33;11.60;99.90
8563;DHT22;16392;52.508;13.468;2023-03-19T10:42:09;11.80;99.90
8563;DHT22;16392;52.508;13.468;2023-03-19T10:44:41;11.70;99.90
8563;DHT22;16392;52.508;13.468;2023-03-19T10:47:11;11.80;99.90
8563;DHT22;16392;52.508;13.468;2023-03-19T10:49:38;11.80;99.90
8563;DHT22;16392;52.508;13.468;2023-03-19T10:52:05;11.70;99.90
8563;DHT22;16392;52.508;13.468;2023-03-19T10:54:32;11.70;99.90
8563;DHT22;16392;52.508;13.468;2023-03-19T10:56:59;11.70;99.90
8563;DHT22;16392;52.508;13.468;2023-03-19T10:59:31;11.90;99.90
8563;DHT22;16392;52.508;13.468;2023-03-19T11:02:00;11.90;99.90
8563;DHT22;16392;52.508;13.468;2023-03-19T11:04:27;12.10;99.90
8563;DHT22;16392;52.508;13.468;2023-03-19T11:07:01;12.40;99.90
8563;DHT22;16392;52.508;13.468;2023-03-19T11:09:29;12.30;99.90
8563;DHT22;16392;52.508;13.468;2023-03-19T11:12:04;12.20;99.90
8563;DHT22;16392;52.508;13.468;2023-03-19T11:14:34;12.30;99.90
8563;DHT22;16392;52.508;13.468;2023-03-19T11:17:02;12.30;99.90
8563;DHT22;16392;52.508;13.468;2023-03-19T11:19:30;12.30;99.90
8563;DHT22;16392;52.508;13.468;2023-03-19T11:22:01;12.70;99.90
8563;DHT22;16392;52.508;13.468;2023-03-19T11:24:30;13.20;99.90
8563;DHT22;16392;52.508;13.468;2023-03-19T11:26:57;13.80;99.90
8563;DHT22;16392;52.508;13.468;2023-03-19T11:29:25;14.10;99.90
8563;DHT22;16392;52.508;13.468;2023-03-19T11:31:55;14.10;99.90
8563;DHT22;16392;52.508;13.468;2023-03-19T11:34:26;14.40;99.90
8563;DHT22;16392;52.508;13.468;2023-03-19T11:36:58;14.50;21.00
8563;DHT22;16392;52.508;13.468;2023-03-19T11:39:33;14.70;1.00
8563;DHT22;16392;52.508;13.468;2023-03-19T11:42:10;14.70;1.00
8563;DHT22;16392;52.508;13.468;2023-03-19T11:44:46;15.00;1.00
8563;DHT22;16392;52.508;13.468;2023-03-19T11:47:20;14.80;1.00
8563;DHT22;16392;52.508;13.468;2023-03-19T11:49:55;14.40;1.00
8563;DHT22;16392;52.508;13.468;2023-03-19T11:52:27;14.40;1.00
8563;DHT22;16392;52.508;13.468;2023-03-19T11:55:02;14.20;1.00
8563;DHT22;16392;52.508;13.468;2023-03-19T11:57:34;14.20;1.00
8563;DHT22;16392;52.508;13.468;2023-03-19T12:00:10;14.10;1.00
8563;DHT22;16392;52.508;13.468;2023-03-19T12:03:03;14.30;8.20
8563;DHT22;16392;52.508;13.468;2023-03-19T12:05:39;14.40;1.00
8563;DHT22;16392;52.508;13.468;2023-03-19T12:08:12;14.70;1.00
8563;DHT22;16392;52.508;13.468;2023-03-19T12:10:46;14.50;1.00
8563;DHT22;16392;52.508;13.468;2023-03-19T12:15:59;15.10;1.00
8563;DHT22;16392;52.508;13.468;2023-03-19T12:18:35;15.20;1.00
8563;DHT22;16392;52.508;13.468;2023-03-19T12:21:09;15.30;1.00
8563;DHT22;16392;52.508;13.468;2023-03-19T12:23:42;15.40;1.00
8563;DHT22;16392;52.508;13.468;2023-03-19T12:26:14;15.60;99.90
8563;DHT22;16392;52.508;13.468;2023-03-19T12:28:45;15.70;1.00
8563;DHT22;16392;52.508;13.468;2023-03-19T12:31:20;15.80;1.00
8563;DHT22;16392;52.508;13.468;2023-03-19T12:33:54;16.00;99.90
8563;DHT22;16392;52.508;13.468;2023-03-19T12:36:24;16.00;99.90
8563;DHT22;16392;52.508;13.468;2023-03-19T12:38:52;16.10;12.70
8563;DHT22;16392;52.508;13.468;2023-03-19T12:41:20;15.90;1.00
8563;DHT22;16392;52.508;13.468;2023-03-19T12:43:50;15.90;82.40
8563;DHT22;16392;52.508;13.468;2023-03-19T12:46:18;16.10;1.00
8563;DHT22;16392;52.508;13.468;2023-03-19T12:48:49;16.30;18.50
8563;DHT22;16392;52.508;13.468;2023-03-19T12:51:19;16.60;99.90
8563;DHT22;16392;52.508;13.468;2023-03-19T12:53:47;16.60;1.00
8563;DHT22;16392;52.508;13.468;2023-03-19T12:56:16;16.30;8.90
8563;DHT22;16392;52.508;13.468;2023-03-19T12:58:47;16.30;99.90
8563;DHT22;16392;52.508;13.468;2023-03-19T13:01:17;16.60;1.00
8563;DHT22;16392;52.508;13.468;2023-03-19T13:03:48;17.20;99.90
8563;DHT22;16392;52.508;13.468;2023-03-19T13:06:24;17.70;26.70
8563;DHT22;16392;52.508;13.468;2023-03-19T13:08:54;17.60;99.90
8563;DHT22;16392;52.508;13.468;2023-03-19T13:11:24;17.00;99.90
8563;DHT22;16392;52.508;13.468;2023-03-19T13:13:57;17.00;93.60
8563;DHT22;16392;52.508;13.468;2023-03-19T13:16:31;17.60;1.00
8563;DHT22;16392;52.508;13.468;2023-03-19T13:19:01;17.90;1.00
8563;DHT22;16392;52.508;13.468;2023-03-19T13:21:32;17.70;99.90
8563;DHT22;16392;52.508;13.468;2023-03-19T13:24:02;17.90;1.00
8563;DHT22;16392;52.508;13.468;2023-03-19T13:26:36;17.80;1.00
8563;DHT22;16392;52.508;13.468;2023-03-19T13:29:08;17.60;99.90
8563;DHT22;16392;52.508;13.468;2023-03-19T13:31:40;17.80;1.00
8563;DHT22;16392;52.508;13.468;2023-03-19T13:34:18;17.90;1.00
8563;DHT22;16392;52.508;13.468;2023-03-19T13:36:53;18.30;1.00
8563;DHT22;16392;52.508;13.468;2023-03-19T13:39:29;18.40;99.90
8563;DHT22;16392;52.508;13.468;2023-03-19T13:44:48;17.80;1.00
8563;DHT22;16392;52.508;13.468;2023-03-19T13:47:37;17.50;99.90
8563;DHT22;16392;52.508;13.468;2023-03-19T13:55:47;17.10;99.90
8563;DHT22;16392;52.508;13.468;2023-03-19T13:58:26;17.10;1.00
8563;DHT22;16392;52.508;13.468;2023-03-19T14:06:33;17.10;1.00
8563;DHT22;16392;52.508;13.468;2023-03-19T14:09:02;17.20;1.00
8563;DHT22;16392;52.508;13.468;2023-03-19T14:14:43;17.40;1.00
8563;DHT22;16392;52.508;13.468;2023-03-19T14:17:13;17.50;1.00
8563;DHT22;16392;52.508;13.468;2023-03-19T14:19:41;17.40;99.90
8563;DHT22;16392;52.508;13.468;2023-03-19T14:22:08;17.50;99.90
8563;DHT22;16392;52.508;13.468;2023-03-19T14:24:38;17.40;99.90
8563;DHT22;16392;52.508;13.468;2023-03-19T14:27:21;17.20;99.90
8563;DHT22;16392;52.508;13.468;2023-03-19T14:29:58;17.40;99.90
8563;DHT22;16392;52.508;13.468;2023-03-19T14:32:35;17.50;1.00
8563;DHT22;16392;52.508;13.468;2023-03-19T14:35:05;17.30;99.90
8563;DHT22;16392;52.508;13.468;2023-03-19T14:37:37;17.30;99.90
8563;DHT22;16392;52.508;13.468;2023-03-19T14:40:08;17.30;1.80
8563;DHT22;16392;52.508;13.468;2023-03-19T14:42:37;17.20;1.00
8563;DHT22;16392;52.508;13.468;2023-03-19T14:45:19;17.30;1.00
8563;DHT22;16392;52.508;13.468;2023-03-19T14:47:49;17.10;1.00
8563;DHT22;16392;52.508;13.468;2023-03-19T14:52:58;17.40;1.00
8563;DHT22;16392;52.508;13.468;2023-03-19T14:55:36;17.30;1.00
8563;DHT22;16392;52.508;13.468;2023-03-19T14:58:03;17.30;1.00
8563;DHT22;16392;52.508;13.468;2023-03-19T15:00:38;17.30;1.00
8563;DHT22;16392;52.508;13.468;2023-03-19T15:03:06;17.40;99.90
8563;DHT22;16392;52.508;13.468;2023-03-19T15:05:38;17.50;1.00
8563;DHT22;16392;52.508;13.468;2023-03-19T15:08:05;17.40;99.90
8563;DHT22;16392;52.508;13.468;2023-03-19T15:10:34;17.20;99.90
8563;DHT22;16392;52.508;13.468;2023-03-19T15:13:08;17.10;1.00
8563;DHT22;16392;52.508;13.468;2023-03-19T15:15:50;17.00;99.90
8563;DHT22;16392;52.508;13.468;2023-03-19T15:18:22;17.00;99.90
8563;DHT22;16392;52.508;13.468;2023-03-19T15:20:50;16.90;99.90
8563;DHT22;16392;52.508;13.468;2023-03-19T15:23:32;16.90;99.90
8563;DHT22;16392;52.508;13.468;2023-03-19T15:26:00;16.90;1.00
8563;DHT22;16392;52.508;13.468;2023-03-19T15:28:42;16.80;99.90
8563;DHT22;16392;52.508;13.468;2023-03-19T15:31:11;16.70;1.00
8563;DHT22;16392;52.508;13.468;2023-03-19T15:33:40;16.70;1.00
8563;DHT22;16392;52.508;13.468;2023-03-19T15:36:10;16.70;1.00
8563;DHT22;16392;52.508;13.468;2023-03-19T15:38:42;16.90;1.00
8563;DHT22;16392;52.508;13.468;2023-03-19T15:41:10;16.70;99.90
8563;DHT22;16392;52.508;13.468;2023-03-19T15:43:38;16.50;1.00
8563;DHT22;16392;52.508;13.468;2023-03-19T15:46:09;16.50;1.00
8563;DHT22;16392;52.508;13.468;2023-03-19T15:48:41;16.40;1.00
8563;DHT22;16392;52.508;13.468;2023-03-19T15:51:10;16.40;1.00
8563;DHT22;16392;52.508;13.468;2023-03-19T15:53:39;16.40;1.00
8563;DHT22;16392;52.508;13.468;2023-03-19T15:56:06;16.50;1.00
8563;DHT22;16392;52.508;13.468;2023-03-19T15:58:36;16.50;1.00
8563;DHT22;16392;52.508;13.468;2023-03-19T16:01:04;16.60;1.00
8563;DHT22;16392;52.508;13.468;2023-03-19T16:03:33;16.60;1.00
8563;DHT22;16392;52.508;13.468;2023-03-19T16:06:05;16.70;1.00
8563;DHT22;16392;52.508;13.468;2023-03-19T16:08:35;16.70;1.00
8563;DHT22;16392;52.508;13.468;2023-03-19T16:11:25;16.60;1.00
8563;DHT22;16392;52.508;13.468;2023-03-19T16:13:53;16.50;1.00
8563;DHT22;16392;52.508;13.468;2023-03-19T16:16:22;16.50;1.00
8563;DHT22;16392;52.508;13.468;2023-03-19T16:18:49;16.50;1.00